createdAt,value
2019-05-17T00:00:16.799Z,7.35
2019-05-17T00:02:47.345Z,10.10
2019-05-17T00:05:18.266Z,12.50
2019-05-17T00:07:48.595Z,10.80
2019-05-17T00:10:20.191Z,9.83
2019-05-17T00:12:51.667Z,11.53
2019-05-17T00:15:22.684Z,10.32
2019-05-17T00:17:53.000Z,6.72
2019-05-17T00:20:26.770Z,8.00
2019-05-17T00:22:57.503Z,9.15
2019-05-17T00:25:29.601Z,7.22
2019-05-17T00:27:59.910Z,8.88
2019-05-17T00:30:31.173Z,10.58
2019-05-17T00:33:01.490Z,9.68
2019-05-17T00:35:32.224Z,8.68
2019-05-17T00:38:03.054Z,10.68
2019-05-17T00:40:33.428Z,10.00
2019-05-17T00:43:06.431Z,11.05
2019-05-17T00:45:37.756Z,6.90
2019-05-17T00:48:08.386Z,7.90
2019-05-17T00:50:39.705Z,9.00
2019-05-17T00:53:10.113Z,6.78
2019-05-17T00:55:40.751Z,8.48
2019-05-17T00:58:11.249Z,8.73
2019-05-17T01:00:42.530Z,9.00
2019-05-17T01:03:13.242Z,9.75
2019-05-17T01:05:44.083Z,9.58
2019-05-17T01:08:14.808Z,11.55
2019-05-17T01:10:47.557Z,10.70
2019-05-17T01:15:52.130Z,9.93
2019-05-17T01:18:22.861Z,12.25
2019-05-17T01:20:54.139Z,10.30
2019-05-17T01:23:24.459Z,6.35
2019-05-17T01:25:56.690Z,13.83
2019-05-17T01:28:27.090Z,7.70
2019-05-17T01:30:58.054Z,10.23
2019-05-17T01:33:28.403Z,9.68
2019-05-17T01:35:58.723Z,12.90
2019-05-17T01:38:30.832Z,11.35
2019-05-17T01:41:01.564Z,10.72
2019-05-17T01:43:31.928Z,8.53
2019-05-17T01:46:02.234Z,7.30
2019-05-17T01:48:32.557Z,8.40
2019-05-17T01:51:04.706Z,8.45
2019-05-17T01:53:36.439Z,9.18
2019-05-17T01:56:08.509Z,8.07
2019-05-17T01:58:39.656Z,9.70
2019-05-17T02:01:09.896Z,11.55
2019-05-17T02:03:40.614Z,7.67
2019-05-17T02:06:16.543Z,6.75
2019-05-17T02:08:47.524Z,11.60
2019-05-17T02:11:18.603Z,12.25
2019-05-17T02:13:49.729Z,9.43
2019-05-17T02:16:20.647Z,10.78
2019-05-17T02:18:53.395Z,8.73
2019-05-17T02:21:24.164Z,17.52
2019-05-17T02:23:57.000Z,9.50
2019-05-17T02:26:27.134Z,11.45
2019-05-17T02:28:57.556Z,10.82
2019-05-17T02:31:28.053Z,12.65
2019-05-17T02:33:58.649Z,7.75
2019-05-17T02:36:29.013Z,11.73
2019-05-17T02:38:59.398Z,8.70
2019-05-17T02:41:33.063Z,10.18
2019-05-17T02:44:03.548Z,12.95
2019-05-17T02:46:34.035Z,9.48
2019-05-17T02:49:04.723Z,12.05
2019-05-17T02:51:36.959Z,10.38
2019-05-17T02:54:07.450Z,10.30
2019-05-17T02:56:38.136Z,10.63
2019-05-17T02:59:08.434Z,12.35
2019-05-17T03:01:39.377Z,11.05
2019-05-17T03:04:12.803Z,9.40
2019-05-17T03:06:43.850Z,10.05
2019-05-17T03:09:14.467Z,9.95
2019-05-17T03:11:45.492Z,10.03
2019-05-17T03:14:15.977Z,13.95
2019-05-17T03:16:48.475Z,13.50
2019-05-17T03:19:18.899Z,14.38
2019-05-17T03:21:53.299Z,10.55
2019-05-17T03:24:22.765Z,13.22
2019-05-17T03:26:54.175Z,11.45
2019-05-17T03:29:24.490Z,9.83
2019-05-17T03:32:00.073Z,13.78
2019-05-17T03:34:29.834Z,10.30
2019-05-17T03:37:06.484Z,11.95
2019-05-17T03:39:34.018Z,15.40
2019-05-17T03:42:05.644Z,12.70
2019-05-17T03:44:35.960Z,12.03
2019-05-17T03:47:06.785Z,10.38
2019-05-17T03:49:39.557Z,8.88
2019-05-17T03:52:13.754Z,15.20
2019-05-17T03:54:44.275Z,14.30
2019-05-17T03:57:15.381Z,10.88
2019-05-17T03:59:45.699Z,16.75
2019-05-17T04:02:16.405Z,10.88
2019-05-17T04:04:47.022Z,17.55
2019-05-17T04:07:18.897Z,11.88
2019-05-17T04:09:49.213Z,12.95
2019-05-17T04:12:23.137Z,12.82
2019-05-17T04:14:53.334Z,10.60
2019-05-17T04:17:25.095Z,13.38
2019-05-17T04:19:55.748Z,11.88
2019-05-17T04:22:26.658Z,13.48
2019-05-17T04:24:57.092Z,14.03
2019-05-17T04:27:28.335Z,17.48
2019-05-17T04:29:59.061Z,15.95
2019-05-17T04:32:32.910Z,13.72
2019-05-17T04:35:03.699Z,10.30
2019-05-17T04:37:38.339Z,14.45
2019-05-17T04:40:07.389Z,17.45
2019-05-17T04:42:37.995Z,15.63
2019-05-17T04:45:08.619Z,11.15
2019-05-17T04:47:38.908Z,14.00
2019-05-17T04:50:13.576Z,11.12
2019-05-17T04:52:46.223Z,11.25
2019-05-17T04:55:16.829Z,13.53
2019-05-17T04:57:47.575Z,18.65
2019-05-17T05:00:18.296Z,15.75
2019-05-17T05:02:52.510Z,12.45
2019-05-17T05:05:22.930Z,13.78
2019-05-17T05:07:53.789Z,11.93
2019-05-17T05:10:24.159Z,13.98
2019-05-17T05:12:54.840Z,15.48
2019-05-17T05:15:44.075Z,13.70
2019-05-17T05:18:15.187Z,20.37
2019-05-17T05:20:45.935Z,15.25
2019-05-17T05:23:16.799Z,17.73
2019-05-17T05:25:47.223Z,14.30
2019-05-17T05:28:17.867Z,19.57
2019-05-17T05:30:48.130Z,17.23
2019-05-17T05:33:22.017Z,17.12
2019-05-17T05:35:52.300Z,14.90
2019-05-17T05:38:22.733Z,12.88
2019-05-17T05:40:53.096Z,13.95
2019-05-17T05:43:25.628Z,19.30
2019-05-17T05:45:56.432Z,15.03
2019-05-17T05:48:27.358Z,16.57
2019-05-17T05:50:57.607Z,16.70
2019-05-17T05:53:29.006Z,14.43
2019-05-17T05:55:59.345Z,16.85
2019-05-17T05:58:32.037Z,15.28
2019-05-17T06:01:03.378Z,17.20
2019-05-17T06:03:35.141Z,17.07
2019-05-17T06:06:06.627Z,14.47
2019-05-17T06:08:37.875Z,14.47
2019-05-17T06:11:08.232Z,14.45
2019-05-17T06:13:41.750Z,14.40
2019-05-17T06:16:13.289Z,17.13
2019-05-17T06:18:43.831Z,11.40
2019-05-17T06:21:14.150Z,11.22
2019-05-17T06:23:45.477Z,11.80
2019-05-17T06:26:18.073Z,14.03
2019-05-17T06:28:48.684Z,14.07
2019-05-17T06:31:19.005Z,14.40
2019-05-17T06:33:52.422Z,15.05
2019-05-17T06:36:23.283Z,15.80
2019-05-17T06:38:54.132Z,14.13
2019-05-17T06:41:24.623Z,15.13
2019-05-17T06:43:56.411Z,20.23
2019-05-17T06:46:27.217Z,14.30
2019-05-17T06:48:58.113Z,16.95
2019-05-17T06:51:28.813Z,15.55
2019-05-17T06:54:01.747Z,16.55
2019-05-17T06:56:32.356Z,17.10
2019-05-17T06:59:03.887Z,17.32
2019-05-17T07:01:34.401Z,16.50
2019-05-17T07:04:05.475Z,19.85
2019-05-17T07:06:36.510Z,19.87
2019-05-17T07:09:09.876Z,18.62
2019-05-17T07:11:39.990Z,17.10
2019-05-17T07:14:11.056Z,19.25
2019-05-17T07:16:42.041Z,18.00
2019-05-17T07:19:12.429Z,15.85
2019-05-17T07:21:43.049Z,17.52
2019-05-17T07:24:15.605Z,18.02
2019-05-17T07:26:45.946Z,17.10
2019-05-17T07:29:19.271Z,17.12
2019-05-17T07:31:49.757Z,20.75
2019-05-17T07:34:21.508Z,16.07
2019-05-17T07:36:51.935Z,16.82
2019-05-17T07:39:22.730Z,18.00
2019-05-17T07:41:52.991Z,16.52
2019-05-17T07:44:23.408Z,16.07
2019-05-17T07:46:54.208Z,21.97
2019-05-17T07:49:25.389Z,23.95
2019-05-17T07:51:55.733Z,17.30
2019-05-17T07:54:26.413Z,22.17
2019-05-17T07:56:56.764Z,28.92
2019-05-17T07:59:29.431Z,29.92
2019-05-17T08:01:59.869Z,29.55
2019-05-17T08:04:32.101Z,24.85
2019-05-17T08:07:02.428Z,18.52
2019-05-17T08:09:33.223Z,21.17
2019-05-17T08:12:03.592Z,15.98
2019-05-17T08:14:34.319Z,31.70
2019-05-17T08:17:05.770Z,20.45
2019-05-17T08:19:36.699Z,17.60
2019-05-17T08:22:07.036Z,26.05
2019-05-17T08:24:40.593Z,21.68
2019-05-17T08:27:10.929Z,22.73
2019-05-17T08:29:41.979Z,24.37
2019-05-17T08:32:12.818Z,25.57
2019-05-17T08:34:43.790Z,21.95
2019-05-17T08:37:14.122Z,21.82
2019-05-17T08:39:44.745Z,22.82
2019-05-17T08:42:15.086Z,23.25
2019-05-17T08:44:49.821Z,20.77
2019-05-17T08:47:22.026Z,18.60
2019-05-17T08:49:52.618Z,28.23
2019-05-17T08:52:23.135Z,18.50
2019-05-17T08:54:55.024Z,25.08
2019-05-17T08:57:25.434Z,21.45
2019-05-17T08:59:55.981Z,20.88
2019-05-17T09:02:26.347Z,20.77
2019-05-17T09:05:00.277Z,21.95
2019-05-17T09:07:30.176Z,25.32
2019-05-17T09:10:01.732Z,29.07
2019-05-17T09:12:33.505Z,26.02
2019-05-17T09:15:06.257Z,20.00
2019-05-17T09:17:36.780Z,25.62
2019-05-17T09:20:10.587Z,20.68
2019-05-17T09:22:40.709Z,21.65
2019-05-17T09:25:18.888Z,26.52
2019-05-17T09:27:46.710Z,27.70
2019-05-17T09:30:20.288Z,23.87
2019-05-17T09:32:50.668Z,27.52
2019-05-17T09:35:22.048Z,26.00
2019-05-17T09:37:53.422Z,25.75
2019-05-17T09:40:26.280Z,28.30
2019-05-17T09:42:57.006Z,24.98
2019-05-17T09:45:30.590Z,26.07
2019-05-17T09:48:00.842Z,21.10
2019-05-17T09:50:31.623Z,27.35
2019-05-17T09:53:02.048Z,27.62
2019-05-17T09:55:34.884Z,23.02
2019-05-17T09:58:05.149Z,24.72
2019-05-17T10:00:36.040Z,22.98
2019-05-17T10:03:06.515Z,20.92
2019-05-17T10:05:40.627Z,26.48
2019-05-17T10:08:11.718Z,24.37
2019-05-17T10:10:42.955Z,24.65
2019-05-17T10:13:13.482Z,26.33
2019-05-17T10:15:47.134Z,28.95
2019-05-17T10:18:19.555Z,26.25
2019-05-17T10:20:50.702Z,28.70
2019-05-17T10:23:21.225Z,29.85
2019-05-17T10:25:52.063Z,25.37
2019-05-17T10:28:22.409Z,23.50
2019-05-17T10:30:52.837Z,24.60
2019-05-17T10:33:23.633Z,23.70
2019-05-17T10:35:54.655Z,23.42
2019-05-17T10:38:25.035Z,21.23
2019-05-17T10:40:55.376Z,23.47
2019-05-17T10:43:25.749Z,22.60
2019-05-17T10:45:59.817Z,26.12
2019-05-17T10:48:30.995Z,23.75
2019-05-17T10:51:01.440Z,27.30
2019-05-17T10:53:31.848Z,28.55
2019-05-17T10:56:02.594Z,23.00
2019-05-17T10:58:33.000Z,24.95
2019-05-17T11:01:04.407Z,21.95
2019-05-17T11:03:34.741Z,24.92
2019-05-17T11:06:06.028Z,21.30
2019-05-17T11:08:36.363Z,24.63
2019-05-17T11:11:10.057Z,26.48
2019-05-17T11:13:39.835Z,26.62
2019-05-17T11:16:10.505Z,29.70
2019-05-17T11:18:41.077Z,35.80
2019-05-17T11:21:12.779Z,24.70
2019-05-17T11:23:43.144Z,26.77
2019-05-17T11:26:13.946Z,28.12
2019-05-17T11:28:44.273Z,29.67
2019-05-17T11:31:15.916Z,24.23
2019-05-17T11:33:46.295Z,25.37
2019-05-17T11:36:17.135Z,26.07
2019-05-17T11:38:47.516Z,26.40
2019-05-17T11:41:21.544Z,24.45
2019-05-17T11:43:49.894Z,26.07
2019-05-17T11:46:35.047Z,25.55
2019-05-17T11:48:53.412Z,21.97
2019-05-17T11:51:27.230Z,24.63
2019-05-17T11:53:56.358Z,20.15
2019-05-17T11:56:27.844Z,28.00
2019-05-17T11:58:58.189Z,20.85
2019-05-17T12:01:28.940Z,20.50
2019-05-17T12:03:59.480Z,25.57
2019-05-17T12:06:30.374Z,26.40
2019-05-17T12:09:00.787Z,23.77
2019-05-17T12:11:33.629Z,22.82
2019-05-17T12:14:03.892Z,72.03
2019-05-17T12:16:34.957Z,24.52
2019-05-17T12:19:05.680Z,27.20
2019-05-17T12:21:38.442Z,20.82
2019-05-17T12:24:08.876Z,22.17
2019-05-17T12:26:41.638Z,23.47
2019-05-17T12:29:11.974Z,22.82
2019-05-17T12:31:43.921Z,21.02
2019-05-17T12:34:14.354Z,22.62
2019-05-17T12:36:44.804Z,23.77
2019-05-17T12:39:15.072Z,19.92
2019-05-17T12:41:45.542Z,18.23
2019-05-17T12:44:15.958Z,15.43
2019-05-17T12:46:46.704Z,18.75
2019-05-17T12:49:17.084Z,21.52
2019-05-17T12:51:49.390Z,15.70
2019-05-17T12:54:19.798Z,16.15
2019-05-17T12:56:51.885Z,15.48
2019-05-17T12:59:22.289Z,21.30
2019-05-17T13:01:52.937Z,17.02
2019-05-17T13:04:23.345Z,19.12
2019-05-17T13:06:53.728Z,15.78
2019-05-17T13:09:24.302Z,21.70
2019-05-17T13:11:55.260Z,20.45
2019-05-17T13:14:25.555Z,18.12
2019-05-17T13:16:55.883Z,19.92
2019-05-17T13:19:26.251Z,26.07
2019-05-17T13:21:57.726Z,21.85
2019-05-17T13:24:28.004Z,17.75
2019-05-17T13:26:59.443Z,19.65
2019-05-17T13:29:30.835Z,20.35
2019-05-17T13:32:02.536Z,16.70
2019-05-17T13:34:32.964Z,17.32
2019-05-17T13:37:03.799Z,25.50
2019-05-17T13:39:34.262Z,27.20
2019-05-17T13:42:05.183Z,17.02
2019-05-17T13:44:35.515Z,17.82
2019-05-17T13:47:06.260Z,25.15
2019-05-17T13:49:36.588Z,22.02
2019-05-17T13:52:09.021Z,25.85
2019-05-17T13:54:39.363Z,18.62
2019-05-17T13:57:11.441Z,20.90
2019-05-17T13:59:42.018Z,26.02
2019-05-17T14:02:13.144Z,20.17
2019-05-17T14:04:43.484Z,21.20
2019-05-17T14:07:14.334Z,21.42
2019-05-17T14:09:44.611Z,22.13
2019-05-17T14:12:15.669Z,21.80
2019-05-17T14:14:46.002Z,17.35
2019-05-17T14:17:16.834Z,19.30
2019-05-17T14:19:47.261Z,20.17
2019-05-17T14:22:19.319Z,17.48
2019-05-17T14:24:49.649Z,18.37
2019-05-17T14:27:22.520Z,24.25
2019-05-17T14:29:53.170Z,18.42
2019-05-17T14:32:24.035Z,18.48
2019-05-17T14:34:54.326Z,19.17
2019-05-17T14:37:24.735Z,18.17
2019-05-17T14:39:56.098Z,24.10
2019-05-17T14:42:26.427Z,20.20
2019-05-17T14:44:56.837Z,20.12
2019-05-17T14:47:30.448Z,20.37
2019-05-17T14:50:00.774Z,21.42
2019-05-17T14:52:31.617Z,19.90
2019-05-17T14:55:03.244Z,19.07
2019-05-17T14:57:34.271Z,24.50
2019-05-17T15:00:07.225Z,18.85
2019-05-17T15:02:37.891Z,22.82
2019-05-17T15:05:10.265Z,22.40
2019-05-17T15:07:41.516Z,18.27
2019-05-17T15:10:12.776Z,21.42
2019-05-17T15:12:44.259Z,25.27
2019-05-17T15:15:25.835Z,22.70
2019-05-17T15:17:48.192Z,22.82
2019-05-17T15:20:18.576Z,23.05
2019-05-17T15:22:49.209Z,25.48
2019-05-17T15:25:20.841Z,22.13
2019-05-17T15:27:52.184Z,22.55
2019-05-17T15:30:22.717Z,20.27
2019-05-17T15:32:53.756Z,25.60
2019-05-17T15:35:24.104Z,22.32
2019-05-17T15:37:54.946Z,22.65
2019-05-17T15:40:25.318Z,25.08
2019-05-17T15:42:55.683Z,19.52
2019-05-17T15:45:26.853Z,21.70
2019-05-17T15:47:58.405Z,20.52
2019-05-17T15:50:29.102Z,21.60
2019-05-17T15:53:00.447Z,26.73
2019-05-17T15:55:30.948Z,23.62
2019-05-17T15:58:02.749Z,24.32
2019-05-17T16:00:33.452Z,23.83
2019-05-17T16:03:04.496Z,20.85
2019-05-17T16:05:34.852Z,20.27
2019-05-17T16:08:05.279Z,21.15
2019-05-17T16:10:35.634Z,27.58
2019-05-17T16:13:09.257Z,24.32
2019-05-17T16:15:39.625Z,22.40
2019-05-17T16:18:10.618Z,21.73
2019-05-17T16:20:42.416Z,20.72
2019-05-17T16:23:13.837Z,26.87
2019-05-17T16:25:44.250Z,21.02
2019-05-17T16:28:15.541Z,25.68
2019-05-17T16:30:46.029Z,20.30
2019-05-17T16:33:16.960Z,21.12
2019-05-17T16:35:47.293Z,21.60
2019-05-17T16:38:20.070Z,25.50
2019-05-17T16:40:50.802Z,27.42
2019-05-17T16:43:21.788Z,25.40
2019-05-17T16:45:52.126Z,24.07
2019-05-17T16:48:23.723Z,26.23
2019-05-17T16:50:54.134Z,23.05
2019-05-17T16:53:25.087Z,26.23
2019-05-17T16:55:55.795Z,30.23
2019-05-17T16:58:26.839Z,25.05
2019-05-17T17:00:57.190Z,25.15
2019-05-17T17:03:43.325Z,23.18
2019-05-17T17:06:01.295Z,23.80
2019-05-17T17:08:33.880Z,26.45
2019-05-17T17:11:04.299Z,28.55
2019-05-17T17:13:34.588Z,27.60
2019-05-17T17:16:05.444Z,29.55
2019-05-17T17:18:37.419Z,29.98
2019-05-17T17:21:08.039Z,26.27
2019-05-17T17:23:38.874Z,27.67
2019-05-17T17:26:09.596Z,32.03
2019-05-17T17:28:42.350Z,28.02
2019-05-17T17:31:16.659Z,23.90
2019-05-17T17:33:47.684Z,26.27
2019-05-17T17:36:19.564Z,25.17
2019-05-17T17:38:50.632Z,30.43
2019-05-17T17:41:21.325Z,27.73
2019-05-17T17:43:58.519Z,26.80
2019-05-17T17:46:24.853Z,31.73
2019-05-17T17:48:55.726Z,27.98
2019-05-17T17:51:26.556Z,27.22
2019-05-17T17:53:57.746Z,31.17
2019-05-17T17:56:28.125Z,27.05
2019-05-17T17:58:59.358Z,28.70
2019-05-17T18:01:29.993Z,29.18
2019-05-17T18:04:00.730Z,27.42
2019-05-17T18:06:31.126Z,26.42
2019-05-17T18:09:03.107Z,30.70
2019-05-17T18:11:35.787Z,31.10
2019-05-17T18:14:13.487Z,24.40
2019-05-17T18:16:40.213Z,31.37
2019-05-17T18:19:11.363Z,30.37
2019-05-17T18:21:42.379Z,25.92
2019-05-17T18:24:16.472Z,27.27
2019-05-17T18:26:46.807Z,29.45
2019-05-17T18:29:19.932Z,27.55
2019-05-17T18:31:50.325Z,26.37
2019-05-17T18:34:21.804Z,26.77
2019-05-17T18:36:52.555Z,27.32
2019-05-17T18:39:23.849Z,24.92
2019-05-17T18:41:56.879Z,24.37
2019-05-17T18:44:28.201Z,30.97
2019-05-17T18:46:58.968Z,27.22
2019-05-17T18:49:30.530Z,25.15
2019-05-17T18:52:00.990Z,25.85
2019-05-17T18:54:31.887Z,28.98
2019-05-17T18:57:02.599Z,23.32
2019-05-17T18:59:33.424Z,28.23
2019-05-17T19:02:03.977Z,29.07
2019-05-17T19:04:34.988Z,29.18
2019-05-17T19:07:05.625Z,23.75
2019-05-17T19:09:36.452Z,25.17
2019-05-17T19:12:07.670Z,27.77
2019-05-17T19:14:43.106Z,31.55
2019-05-17T19:17:10.267Z,30.62
2019-05-17T19:19:40.717Z,27.42
2019-05-17T19:22:12.362Z,23.42
2019-05-17T19:24:42.806Z,22.32
2019-05-17T19:27:13.156Z,23.65
2019-05-17T19:29:44.061Z,35.75
2019-05-17T19:32:14.381Z,22.13
2019-05-17T19:34:44.765Z,29.27
2019-05-17T19:37:15.525Z,26.97
2019-05-17T19:39:46.197Z,24.98
2019-05-17T19:42:17.725Z,24.82
2019-05-17T19:44:58.564Z,26.50
2019-05-17T19:47:20.151Z,30.27
2019-05-17T19:49:51.653Z,28.95
2019-05-17T19:52:22.796Z,29.67
2019-05-17T19:54:53.162Z,32.30
2019-05-17T19:57:23.660Z,26.12
2019-05-17T19:59:54.819Z,26.07
2019-05-17T20:02:25.932Z,30.45
2019-05-17T20:04:56.236Z,25.45
2019-05-17T20:07:36.271Z,25.12
2019-05-17T20:09:59.556Z,26.82
2019-05-17T20:12:30.810Z,26.12
2019-05-17T20:15:16.065Z,24.98
2019-05-17T20:17:34.339Z,25.77
2019-05-17T20:20:07.405Z,29.57
2019-05-17T20:22:40.920Z,29.40
2019-05-17T20:25:13.359Z,28.52
2019-05-17T20:27:43.696Z,26.35
2019-05-17T20:30:16.427Z,25.57
2019-05-17T20:32:46.962Z,23.30
2019-05-17T20:35:18.110Z,24.40
2019-05-17T20:37:49.979Z,29.07
2019-05-17T20:40:21.869Z,25.90
2019-05-17T20:42:52.399Z,28.20
2019-05-17T20:45:32.676Z,28.62
2019-05-17T20:47:56.305Z,27.02
2019-05-17T20:50:26.942Z,30.77
2019-05-17T20:52:57.372Z,28.90
2019-05-17T20:55:28.063Z,23.55
2019-05-17T20:57:59.102Z,30.23
2019-05-17T21:00:30.588Z,31.15
2019-05-17T21:03:01.638Z,24.32
2019-05-17T21:05:31.897Z,27.27
2019-05-17T21:08:02.495Z,30.35
2019-05-17T21:10:35.984Z,28.77
2019-05-17T21:13:06.524Z,23.77
2019-05-17T21:15:47.435Z,29.52
2019-05-17T21:18:10.633Z,29.70
2019-05-17T21:20:41.422Z,33.28
2019-05-17T21:23:12.617Z,30.48
2019-05-17T21:25:45.691Z,24.52
2019-05-17T21:28:16.859Z,27.90
2019-05-17T21:30:48.508Z,32.38
2019-05-17T21:33:19.033Z,30.57
2019-05-17T21:35:49.326Z,29.50
2019-05-17T21:38:19.745Z,23.30
2019-05-17T21:40:50.190Z,25.68
2019-05-17T21:43:23.291Z,28.60
2019-05-17T21:46:03.160Z,25.33
2019-05-17T21:48:27.575Z,23.20
2019-05-17T21:50:57.913Z,31.02
2019-05-17T21:53:28.261Z,28.92
2019-05-17T21:55:58.649Z,27.22
2019-05-17T21:58:29.575Z,32.67
2019-05-17T22:01:06.504Z,27.00
2019-05-17T22:03:37.946Z,29.55
2019-05-17T22:06:09.413Z,34.03
2019-05-17T22:08:40.556Z,29.02
2019-05-17T22:11:11.815Z,34.70
2019-05-17T22:13:42.789Z,26.97
2019-05-17T22:16:19.623Z,34.13
2019-05-17T22:18:45.848Z,32.38
2019-05-17T22:21:17.696Z,30.00
2019-05-17T22:23:48.003Z,33.38
2019-05-17T22:26:19.047Z,32.00
2019-05-17T22:28:51.818Z,32.25
2019-05-17T22:31:23.340Z,37.67
2019-05-17T22:33:53.673Z,32.05
2019-05-17T22:36:26.274Z,36.83
2019-05-17T22:38:57.309Z,34.05
2019-05-17T22:41:29.121Z,42.67
2019-05-17T22:43:59.437Z,30.88
2019-05-17T22:46:36.113Z,34.48
2019-05-17T22:49:03.379Z,27.45
2019-05-17T22:51:34.563Z,37.88
2019-05-17T22:54:05.194Z,29.55
2019-05-17T22:56:35.783Z,30.12
2019-05-17T22:59:06.814Z,30.72
2019-05-17T23:01:38.221Z,31.35
2019-05-17T23:04:08.987Z,28.23
2019-05-17T23:06:39.663Z,32.03
2019-05-17T23:09:10.405Z,39.33
2019-05-17T23:11:44.006Z,28.95
2019-05-17T23:14:14.828Z,32.58
2019-05-17T23:16:51.492Z,30.90
2019-05-17T23:19:18.054Z,37.38
2019-05-17T23:21:49.248Z,38.17
2019-05-17T23:24:19.608Z,28.52
2019-05-17T23:26:52.094Z,27.65
2019-05-17T23:29:22.407Z,32.42
2019-05-17T23:31:54.155Z,29.80
2019-05-17T23:34:24.577Z,36.35
2019-05-17T23:36:58.182Z,35.48
2019-05-17T23:39:28.525Z,35.83
2019-05-17T23:41:59.887Z,35.60
2019-05-17T23:44:30.227Z,32.53
2019-05-17T23:47:07.055Z,31.62
2019-05-17T23:49:33.174Z,36.00
2019-05-17T23:52:03.641Z,31.55
2019-05-17T23:54:35.251Z,33.20
2019-05-17T23:57:05.615Z,31.52
2019-05-17T23:59:36.332Z,37.05
